Time;durP1;ratioP1;P1;durP2;ratioP2;P2;SDS_P1;SDS_P2;PMS_P1;PMS_P2;Temp;Humidity;BMP_temperature;BMP_pressure;BME280_temperature;BME280_humidity;BME280_pressure;Samples;Min_cycle;Max_cycle;Signal;HPM_P1;HPM_P2
2022/07/24 00:01:42;;;;;;;107.18;56.95;;;19.30;99.90;;;;;;10359853;28;20281;-84
2022/07/24 00:06:42;;;;;;;102.10;56.40;;;19.30;99.90;;;;;;10358120;28;20026;-85
2022/07/24 00:11:43;;;;;;;127.38;65.30;;;19.20;99.90;;;;;;10356474;28;20045;-86
2022/07/24 00:16:44;;;;;;;106.45;54.63;;;19.20;99.90;;;;;;10355538;28;20042;-84
2022/07/24 00:21:44;;;;;;;102.28;55.85;;;19.20;99.90;;;;;;10360258;28;20026;-86
2022/07/24 00:26:45;;;;;;;89.38;52.03;;;19.20;99.90;;;;;;10359671;28;20060;-84
2022/07/24 00:31:46;;;;;;;91.60;50.55;;;19.10;99.90;;;;;;10361295;28;20120;-83
2022/07/24 00:36:46;;;;;;;110.93;57.72;;;19.10;99.90;;;;;;10358512;28;20540;-84
2022/07/24 00:41:47;;;;;;;105.63;53.63;;;19.10;99.90;;;;;;10359119;28;20034;-83
2022/07/24 00:46:47;;;;;;;90.60;48.00;;;19.10;99.90;;;;;;10360026;28;20042;-83
2022/07/24 00:51:50;;;;;;;104.25;53.95;;;19.00;99.90;;;;;;10356606;28;20069;-84
2022/07/24 00:56:52;;;;;;;82.40;46.60;;;19.00;99.90;;;;;;10361024;28;20037;-86
2022/07/24 01:01:53;;;;;;;81.10;42.63;;;19.00;99.90;;;;;;10360346;28;20573;-84
2022/07/24 01:06:54;;;;;;;85.68;48.00;;;18.80;99.90;;;;;;10355363;28;20117;-84
2022/07/24 01:11:55;;;;;;;77.90;44.05;;;18.80;99.90;;;;;;10366410;28;20131;-83
2022/07/24 01:16:55;;;;;;;79.47;44.00;;;18.60;99.90;;;;;;10367844;28;20040;-83
2022/07/24 01:21:56;;;;;;;66.38;37.70;;;18.60;99.90;;;;;;10368809;28;20042;-83
2022/07/24 01:26:57;;;;;;;74.28;40.38;;;18.50;99.90;;;;;;10367612;28;20540;-85
2022/07/24 01:31:58;;;;;;;66.28;38.25;;;18.50;99.90;;;;;;10366811;28;20128;-84
2022/07/24 01:36:59;;;;;;;51.85;31.80;;;18.30;99.90;;;;;;10368272;28;20045;-83
2022/07/24 01:42:00;;;;;;;48.88;29.45;;;18.20;99.90;;;;;;10366273;28;20328;-84
2022/07/24 01:47:00;;;;;;;54.28;32.28;;;18.10;99.90;;;;;;10367688;28;20108;-84
2022/07/24 01:52:01;;;;;;;43.15;27.63;;;18.00;99.90;;;;;;10367415;28;20385;-84
2022/07/24 01:57:02;;;;;;;46.45;29.70;;;17.90;99.90;;;;;;10365912;28;20629;-85
2022/07/24 02:02:02;;;;;;;43.78;26.80;;;17.80;99.90;;;;;;10367098;28;20041;-84
2022/07/24 02:07:03;;;;;;;42.58;26.33;;;17.70;99.90;;;;;;10366610;28;20038;-84
2022/07/24 02:12:03;;;;;;;37.78;24.48;;;17.50;99.90;;;;;;10366388;28;20038;-84
2022/07/24 02:17:05;;;;;;;36.80;22.65;;;17.40;99.90;;;;;;10365320;28;20044;-84
2022/07/24 02:22:05;;;;;;;35.83;21.65;;;17.30;99.90;;;;;;10367413;28;20101;-84
2022/07/24 02:27:06;;;;;;;28.80;19.05;;;17.20;99.90;;;;;;10365246;28;20048;-84
2022/07/24 02:32:07;;;;;;;33.15;20.90;;;17.20;99.90;;;;;;10364745;28;20777;-84
2022/07/24 02:37:08;;;;;;;32.30;20.15;;;17.10;99.90;;;;;;10365141;28;20038;-84
2022/07/24 02:42:08;;;;;;;34.65;22.17;;;17.10;99.90;;;;;;10363885;28;20038;-84
2022/07/24 02:47:09;;;;;;;35.60;23.17;;;17.00;99.90;;;;;;10364888;28;20052;-84
2022/07/24 02:52:09;;;;;;;35.65;22.20;;;17.00;99.90;;;;;;10365191;28;20030;-84
2022/07/24 02:57:10;;;;;;;35.17;21.10;;;17.00;99.90;;;;;;10363721;28;20034;-85
2022/07/24 03:02:10;;;;;;;32.35;19.88;;;16.90;99.90;;;;;;10363902;28;20034;-86
2022/07/24 03:07:11;;;;;;;33.05;22.60;;;16.90;99.90;;;;;;10365156;28;20051;-83
2022/07/24 03:12:12;;;;;;;33.67;21.35;;;16.80;99.90;;;;;;10357967;28;20026;-84
2022/07/24 03:17:13;;;;;;;41.30;25.25;;;16.80;99.90;;;;;;10362969;28;20053;-82
2022/07/24 03:22:13;;;;;;;39.17;23.55;;;16.70;99.90;;;;;;10363564;28;20122;-83
2022/07/24 03:27:14;;;;;;;37.95;23.08;;;16.70;99.90;;;;;;10362704;28;20057;-83
2022/07/24 03:32:14;;;;;;;37.70;22.67;;;16.70;99.90;;;;;;10361766;28;20160;-83
2022/07/24 03:37:15;;;;;;;39.47;22.67;;;16.60;99.90;;;;;;10362157;28;20076;-81
2022/07/24 03:42:15;;;;;;;36.72;23.10;;;16.60;99.90;;;;;;10362696;28;20107;-81
2022/07/24 03:47:16;;;;;;;33.20;21.83;;;16.60;99.90;;;;;;10363529;28;20076;-83
2022/07/24 03:52:17;;;;;;;35.00;22.52;;;16.60;99.90;;;;;;10362201;28;20092;-82
2022/07/24 03:57:17;;;;;;;37.05;23.45;;;16.60;99.90;;;;;;10362170;28;20034;-82
2022/07/24 04:02:18;;;;;;;33.22;21.08;;;16.60;99.90;;;;;;10361356;28;20112;-82
2022/07/24 04:07:19;;;;;;;35.47;21.33;;;16.60;99.90;;;;;;10361228;28;20022;-83
2022/07/24 04:12:20;;;;;;;40.53;24.90;;;16.60;99.90;;;;;;10362213;28;20030;-83
2022/07/24 04:17:20;;;;;;;33.75;21.60;;;16.70;99.90;;;;;;10360961;28;20385;-82
2022/07/24 04:22:21;;;;;;;39.67;23.50;;;16.70;99.90;;;;;;10355131;28;20030;-84
2022/07/24 04:27:21;;;;;;;37.92;24.83;;;16.70;99.90;;;;;;10365242;28;20034;-82
2022/07/24 04:32:22;;;;;;;36.17;24.00;;;16.70;99.90;;;;;;10354106;28;20036;-83
2022/07/24 04:37:23;;;;;;;36.65;23.05;;;16.80;99.90;;;;;;10361869;28;20049;-83
2022/07/24 04:42:23;;;;;;;38.42;23.98;;;16.90;99.90;;;;;;10359882;28;20040;-85
2022/07/24 04:47:24;;;;;;;39.80;24.27;;;16.90;99.90;;;;;;10368810;28;20029;-83
2022/07/24 04:52:24;;;;;;;31.42;21.58;;;17.10;99.90;;;;;;10369390;28;20417;-85
2022/07/24 04:57:25;;;;;;;37.78;22.15;;;17.10;99.90;;;;;;10368415;28;20042;-84
2022/07/24 05:02:25;;;;;;;30.48;20.25;;;17.10;99.90;;;;;;10368255;28;20112;-83
2022/07/24 05:07:26;;;;;;;32.30;19.40;;;17.30;99.90;;;;;;10368668;28;20100;-83
2022/07/24 05:12:27;;;;;;;29.02;20.98;;;17.30;99.90;;;;;;10368819;28;20026;-85
2022/07/24 05:17:27;;;;;;;28.50;18.40;;;17.40;99.90;;;;;;10368651;28;20096;-83
2022/07/24 05:22:28;;;;;;;23.55;15.02;;;17.50;99.90;;;;;;10367526;28;20066;-84
2022/07/24 05:27:28;;;;;;;21.45;14.32;;;17.60;99.90;;;;;;10369104;28;20481;-84
2022/07/24 05:32:29;;;;;;;22.38;15.35;;;17.60;99.90;;;;;;10365525;28;20022;-83
2022/07/24 05:37:29;;;;;;;18.77;13.48;;;17.70;99.90;;;;;;10367788;28;20661;-83
2022/07/24 05:42:30;;;;;;;18.23;14.25;;;17.70;99.90;;;;;;10366694;28;20026;-83
2022/07/24 05:47:38;;;;;;;19.58;14.18;;;17.90;99.90;;;;;;10367574;28;20042;-83
2022/07/24 05:52:40;;;;;;;21.73;14.10;;;18.10;99.90;;;;;;10370423;28;20021;-84
2022/07/24 05:57:41;;;;;;;23.38;13.15;;;18.20;99.90;;;;;;10364360;28;20030;-86
2022/07/24 06:02:41;;;;;;;19.38;13.25;;;18.30;99.90;;;;;;10366226;28;20056;-86
2022/07/24 06:07:42;;;;;;;17.17;11.48;;;18.40;99.90;;;;;;10365486;28;20029;-84
2022/07/24 06:12:43;;;;;;;18.58;12.00;;;18.50;99.90;;;;;;10365791;28;20113;-83
2022/07/24 06:17:44;;;;;;;13.55;10.35;;;18.50;99.90;;;;;;10365310;28;20037;-83
2022/07/24 06:22:45;;;;;;;12.85;9.77;;;18.60;99.90;;;;;;10364635;28;20145;-83
2022/07/24 06:27:48;;;;;;;15.32;9.75;;;18.70;99.90;;;;;;10365548;28;20028;-82
2022/07/24 06:32:50;;;;;;;18.05;12.20;;;18.70;99.90;;;;;;10364506;28;20057;-83
2022/07/24 06:37:50;;;;;;;15.23;11.40;;;18.90;99.90;;;;;;10364293;28;20393;-80
2022/07/24 06:42:51;;;;;;;15.18;10.48;;;19.00;99.90;;;;;;10364862;28;20040;-80
2022/07/24 06:47:52;;;;;;;16.88;10.85;;;19.10;99.90;;;;;;10365794;28;20500;-82
2022/07/24 06:52:52;;;;;;;13.88;8.68;;;19.30;99.90;;;;;;10359527;28;20041;-81
2022/07/24 06:57:53;;;;;;;12.80;9.82;;;19.60;99.90;;;;;;10358206;28;20044;-85
2022/07/24 07:02:54;;;;;;;13.73;9.63;;;19.60;99.90;;;;;;10361570;28;20037;-83
2022/07/24 07:07:55;;;;;;;16.95;11.45;;;19.70;99.90;;;;;;10359396;28;20054;-80
2022/07/24 07:12:59;;;;;;;15.05;12.18;;;20.30;99.90;;;;;;10358694;28;20027;-82
2022/07/24 07:18:00;;;;;;;15.73;11.88;;;21.20;99.90;;;;;;10359980;28;20044;-82
2022/07/24 07:23:01;;;;;;;12.98;10.05;;;21.90;99.90;;;;;;10344716;28;20050;-82
2022/07/24 07:28:02;;;;;;;13.20;11.27;;;22.70;99.90;;;;;;10360957;28;20413;-83
2022/07/24 07:33:03;;;;;;;13.18;10.27;;;22.90;99.90;;;;;;10362440;28;20041;-83
2022/07/24 07:38:03;;;;;;;11.38;7.45;;;23.10;99.90;;;;;;10362161;28;20045;-83
2022/07/24 07:43:04;;;;;;;8.80;7.28;;;22.60;99.90;;;;;;10362480;28;20563;-83
2022/07/24 07:48:05;;;;;;;9.60;7.32;;;22.70;99.90;;;;;;10358566;28;20485;-83
2022/07/24 07:53:05;;;;;;;10.82;7.30;;;22.80;99.90;;;;;;10344717;28;20478;-87
2022/07/24 08:05:09;;;;;;;11.77;7.93;;;22.90;99.90;;;;;;10769683;23;20073;-86
2022/07/24 08:22:27;;;;;;;7.40;6.57;;;22.10;99.90;;;;;;10410151;28;20512;-84
2022/07/24 08:27:28;;;;;;;10.30;7.55;;;21.90;99.90;;;;;;10408045;28;20465;-84
2022/07/24 08:38:56;;;;;;;8.77;6.57;;;22.80;99.90;;;;;;10402903;28;20079;-84
2022/07/24 08:43:58;;;;;;;9.38;7.53;;;23.50;99.90;;;;;;10389690;28;20033;-84
2022/07/24 08:48:59;;;;;;;8.45;6.55;;;23.00;99.90;;;;;;10390090;28;20485;-83
2022/07/24 08:53:59;;;;;;;10.27;6.57;;;22.70;99.90;;;;;;10392482;28;20033;-84
2022/07/24 09:05:11;;;;;;;10.10;6.50;;;23.60;99.90;;;;;;10409336;28;20483;-86
2022/07/24 09:10:17;;;;;;;9.80;6.88;;;24.30;99.90;;;;;;10410360;28;20473;-84
2022/07/24 09:21:16;;;;;;;8.05;6.18;;;24.80;99.90;;;;;;10409969;28;20025;-85
2022/07/24 09:27:15;;;;;;;8.23;4.90;;;25.00;99.90;;;;;;10403166;28;20033;-84
2022/07/24 09:38:18;;;;;;;6.28;5.30;;;24.40;99.90;;;;;;10383601;28;20065;-87
2022/07/24 09:43:28;;;;;;;8.88;5.07;;;24.40;99.90;;;;;;10395199;28;20029;-85
2022/07/24 09:48:40;;;;;;;10.65;5.65;;;24.20;99.90;;;;;;10374844;28;20018;-85
2022/07/24 09:53:42;;;;;;;6.82;5.32;;;24.60;99.90;;;;;;10375975;28;20808;-84
2022/07/24 09:58:45;;;;;;;7.95;5.93;;;24.60;99.90;;;;;;10376290;28;20026;-85
2022/07/24 10:03:48;;;;;;;6.68;6.03;;;24.00;99.90;;;;;;10388830;28;20104;-84
2022/07/24 10:08:51;;;;;;;6.43;5.38;;;24.00;99.90;;;;;;10407086;28;20377;-86
2022/07/24 10:13:52;;;;;;;6.80;5.57;;;24.90;99.90;;;;;;10378941;28;20045;-84
2022/07/24 10:18:52;;;;;;;6.70;5.10;;;25.60;99.90;;;;;;10378999;28;20128;-86
2022/07/24 10:24:11;;;;;;;5.65;4.53;;;25.90;99.90;;;;;;10378742;28;20025;-87
2022/07/24 10:29:23;;;;;;;5.00;4.45;;;26.30;99.90;;;;;;10383778;28;20034;-89
2022/07/24 10:40:33;;;;;;;5.53;4.38;;;26.30;99.90;;;;;;10407603;28;20459;-86
2022/07/24 10:45:39;;;;;;;4.82;3.95;;;26.80;99.90;;;;;;10409637;28;20441;-85
2022/07/24 10:51:17;;;;;;;6.30;4.78;;;26.90;99.90;;;;;;10415619;28;20116;-84
2022/07/24 10:56:38;;;;;;;4.10;3.70;;;26.70;99.90;;;;;;10391992;28;20039;-84
2022/07/24 11:13:42;;;;;;;3.38;3.08;;;27.40;99.90;;;;;;10399333;28;20487;-83
2022/07/24 11:18:52;;;;;;;4.65;3.47;;;27.50;99.90;;;;;;10378855;28;20049;-84
2022/07/24 11:24:21;;;;;;;7.47;3.53;;;27.80;99.90;;;;;;10402822;28;20032;-84
2022/07/24 11:29:24;;;;;;;4.70;3.45;;;27.80;99.90;;;;;;10413303;28;20524;-84
2022/07/24 11:40:18;;;;;;;4.00;3.15;;;27.90;90.50;;;;;;10435779;28;20431;-87
2022/07/24 11:45:35;;;;;;;3.03;2.47;;;27.80;94.10;;;;;;10417232;28;20029;-86
2022/07/24 11:50:36;;;;;;;4.85;3.13;;;27.80;99.90;;;;;;10411894;28;20013;-86
2022/07/24 12:07:39;;;;;;;4.45;2.70;;;27.50;93.20;;;;;;10353969;28;20061;-83
2022/07/24 12:26:13;;;;;;;;;;;;;;;;;;;;;
2022/07/24 12:43:01;;;;;;;2.38;2.17;;;28.50;81.80;;;;;;12248126;23;20036;31
2022/07/24 12:48:16;;;;;;;;;;;28.50;76.20;;;;;;9932973;29;19929;-84
2022/07/24 12:53:17;;;;;;;2.38;2.00;;;28.60;81.60;;;;;;9935189;29;19920;-86
2022/07/24 12:58:19;;;;;;;2.50;1.90;;;28.50;75.70;;;;;;9947300;29;20483;-86
2022/07/24 13:03:25;;;;;;;5.15;2.03;;;28.60;77.00;;;;;;9940457;29;20023;-84
2022/07/24 13:14:24;;;;;;;3.60;1.90;;;28.70;74.20;;;;;;9940136;29;20069;-86
2022/07/24 13:19:25;;;;;;;2.50;1.60;;;28.70;73.40;;;;;;9942750;29;20067;-85
2022/07/24 13:24:27;;;;;;;1.80;1.65;;;28.80;72.20;;;;;;9927277;29;20106;-83
2022/07/24 13:29:28;;;;;;;3.15;1.67;;;28.60;73.50;;;;;;9942358;29;20125;-85
2022/07/24 13:34:29;;;;;;;1.60;1.48;;;28.60;72.30;;;;;;9946703;29;20467;-87
2022/07/24 13:39:29;;;;;;;3.90;1.50;;;28.30;70.30;;;;;;9944653;29;20696;-88
2022/07/24 13:44:30;;;;;;;2.20;1.60;;;28.20;67.40;;;;;;9941297;29;20061;-85
2022/07/24 13:49:30;;;;;;;1.58;1.30;;;28.20;68.70;;;;;;9939527;29;20023;-84
2022/07/24 13:54:31;;;;;;;1.35;1.10;;;28.20;67.80;;;;;;9983829;29;20030;-84
2022/07/24 13:59:33;;;;;;;1.70;1.50;;;28.10;68.00;;;;;;10008418;29;20091;-83
2022/07/24 14:04:33;;;;;;;1.20;1.10;;;28.00;67.20;;;;;;9991739;29;20463;-83
2022/07/24 14:09:34;;;;;;;1.88;1.73;;;27.90;66.60;;;;;;9980956;29;20054;-83
2022/07/24 14:14:34;;;;;;;3.08;1.45;;;27.80;67.50;;;;;;9980752;29;20111;-84
2022/07/24 14:19:35;;;;;;;2.53;1.40;;;27.70;63.80;;;;;;9979834;29;20487;-83
2022/07/24 14:24:36;;;;;;;1.40;1.30;;;27.50;64.20;;;;;;9976970;29;20022;-83
2022/07/24 14:29:36;;;;;;;1.65;1.40;;;27.50;65.80;;;;;;9986193;29;20058;-83
2022/07/24 14:34:37;;;;;;;10.82;1.63;;;27.50;64.80;;;;;;9978909;29;20030;-86
2022/07/24 14:39:37;;;;;;;1.45;1.33;;;27.20;63.30;;;;;;9992839;29;20045;-84
2022/07/24 14:44:38;;;;;;;1.65;1.10;;;27.00;65.00;;;;;;9991386;29;20068;-84
2022/07/24 14:49:38;;;;;;;2.53;2.13;;;27.00;65.50;;;;;;9970990;29;20038;-84
2022/07/24 14:54:39;;;;;;;2.65;1.92;;;26.80;67.10;;;;;;9976808;29;20038;-86
2022/07/24 14:59:40;;;;;;;1.83;1.20;;;26.70;67.20;;;;;;9977032;29;20034;-84
2022/07/24 15:04:42;;;;;;;1.60;1.50;;;26.70;64.10;;;;;;9972764;29;20453;-83
2022/07/24 15:09:42;;;;;;;1.60;1.48;;;26.60;65.90;;;;;;9982924;29;20026;-84
2022/07/24 15:14:43;;;;;;;8.38;1.55;;;26.50;64.70;;;;;;9975753;29;20395;-84
2022/07/24 15:19:44;;;;;;;1.17;1.00;;;26.40;65.00;;;;;;9970788;29;20034;-86
2022/07/24 15:24:44;;;;;;;2.15;1.30;;;26.30;64.20;;;;;;9973226;29;20057;-85
2022/07/24 15:29:45;;;;;;;2.42;1.15;;;26.20;61.70;;;;;;9972081;29;20038;-87
2022/07/24 15:34:45;;;;;;;1.80;1.30;;;26.10;62.00;;;;;;9969965;29;20117;-83
2022/07/24 15:45:43;;;;;;;1.33;0.95;;;26.00;64.10;;;;;;9973329;29;20058;-84
2022/07/24 15:57:21;;;;;;;2.08;1.25;;;25.80;61.70;;;;;;9975833;29;20047;-84
2022/07/24 16:02:42;;;;;;;2.33;1.00;;;25.70;60.90;;;;;;9973930;29;20046;-84
2022/07/24 16:07:42;;;;;;;4.07;1.10;;;25.60;61.90;;;;;;9977091;29;20113;-84
2022/07/24 16:12:46;;;;;;;2.58;1.10;;;25.60;63.00;;;;;;9977328;29;20389;-84
2022/07/24 16:17:59;;;;;;;1.10;0.93;;;25.50;60.80;;;;;;9974850;29;20044;-84
2022/07/24 16:29:16;;;;;;;4.20;1.13;;;25.30;61.70;;;;;;9965808;29;20046;-86
2022/07/24 16:34:34;;;;;;;1.27;0.98;;;25.20;59.40;;;;;;9983188;29;20558;-83
2022/07/24 16:39:34;;;;;;;2.08;0.88;;;25.10;61.00;;;;;;9976669;29;20050;-84
2022/07/24 16:45:38;;;;;;;1.10;0.90;;;24.90;61.00;;;;;;9961962;29;20054;-87
2022/07/24 16:50:39;;;;;;;1.15;1.00;;;24.80;61.90;;;;;;9966572;29;20403;-85
2022/07/24 16:55:46;;;;;;;2.17;1.13;;;24.80;63.20;;;;;;9983878;29;20072;-87
2022/07/24 17:00:47;;;;;;;2.35;1.13;;;24.70;63.00;;;;;;9976073;29;20061;-85
2022/07/24 17:05:51;;;;;;;2.08;1.20;;;24.50;63.50;;;;;;9985254;29;20813;-87
2022/07/24 17:10:52;;;;;;;0.80;0.80;;;24.40;64.80;;;;;;9972542;29;20034;-87
2022/07/24 17:22:16;;;;;;;1.33;1.00;;;24.00;65.50;;;;;;9972774;29;20034;-86
2022/07/24 17:27:18;;;;;;;1.10;1.00;;;23.80;67.40;;;;;;9975250;29;20038;-87
2022/07/24 17:32:30;;;;;;;1.42;1.20;;;23.70;68.60;;;;;;9976279;29;20047;-87
2022/07/24 17:37:31;;;;;;;1.20;1.10;;;23.50;72.50;;;;;;9985883;29;20038;-89
2022/07/24 17:42:32;;;;;;;2.58;1.30;;;23.30;75.60;;;;;;9980342;29;20053;-83
2022/07/24 17:47:34;;;;;;;1.23;1.13;;;23.00;77.70;;;;;;9978511;29;20543;-84
2022/07/24 17:52:35;;;;;;;8.65;1.92;;;22.50;78.70;;;;;;9984244;29;20041;-86
2022/07/24 17:57:37;;;;;;;1.75;1.40;;;22.10;78.50;;;;;;10010973;24;20069;-85
2022/07/24 18:02:39;;;;;;;2.15;1.48;;;21.80;82.30;;;;;;10027309;29;20026;-84
2022/07/24 18:07:40;;;;;;;1.40;1.30;;;21.50;82.90;;;;;;10046737;29;20097;-87
2022/07/24 18:12:42;;;;;;;2.17;1.50;;;21.20;83.50;;;;;;10042520;29;20112;-84
2022/07/24 18:17:42;;;;;;;2.15;1.90;;;20.80;85.30;;;;;;10034664;29;20057;-85
2022/07/24 18:22:43;;;;;;;4.10;1.70;;;20.40;86.70;;;;;;10049497;29;20033;-85
2022/07/24 18:27:44;;;;;;;2.78;1.80;;;20.00;87.90;;;;;;10002981;24;20514;-85
2022/07/24 18:32:45;;;;;;;2.80;1.65;;;19.70;89.70;;;;;;9995971;29;20088;-85
2022/07/24 18:37:46;;;;;;;2.00;1.70;;;19.30;90.70;;;;;;10012626;29;20049;-84
2022/07/24 18:42:47;;;;;;;1.80;1.45;;;19.10;91.50;;;;;;10011549;29;20063;-85
2022/07/24 18:47:47;;;;;;;2.05;1.52;;;18.80;92.60;;;;;;10011823;29;20026;-84
2022/07/24 18:52:48;;;;;;;1.65;1.50;;;18.70;93.20;;;;;;10011405;29;20034;-84
2022/07/24 18:57:49;;;;;;;2.65;1.75;;;18.50;93.60;;;;;;10010279;29;20049;-83
2022/07/24 19:02:49;;;;;;;2.30;1.58;;;18.30;93.80;;;;;;10007974;29;20522;-84
2022/07/24 19:07:53;;;;;;;2.40;2.08;;;18.20;94.80;;;;;;9994419;29;20038;-84
2022/07/24 19:12:53;;;;;;;4.55;2.30;;;18.10;94.80;;;;;;10008936;29;20030;-88
2022/07/24 19:17:54;;;;;;;3.83;2.00;;;18.00;95.80;;;;;;10007297;29;20049;-84
2022/07/24 19:22:54;;;;;;;7.35;2.60;;;17.80;97.20;;;;;;10010051;29;20041;-84
2022/07/24 19:27:55;;;;;;;4.95;1.90;;;17.70;98.60;;;;;;9993934;29;20054;-82
2022/07/24 19:32:56;;;;;;;3.08;2.20;;;17.60;99.70;;;;;;10011417;29;20117;-83
2022/07/24 19:37:56;;;;;;;3.45;2.15;;;17.50;99.90;;;;;;9990123;29;20052;-83
2022/07/24 19:42:57;;;;;;;2.50;2.10;;;17.40;99.90;;;;;;10008808;29;20046;-84
2022/07/24 19:47:57;;;;;;;4.45;2.13;;;17.30;99.90;;;;;;10010359;29;20117;-83
2022/07/24 19:52:58;;;;;;;2.85;2.10;;;17.10;99.90;;;;;;9993567;29;20479;-85
2022/07/24 19:57:58;;;;;;;2.40;2.00;;;17.00;99.90;;;;;;10008473;29;20042;-82
2022/07/24 20:02:59;;;;;;;2.40;1.90;;;17.00;99.90;;;;;;10009750;29;20543;-82
2022/07/24 20:08:00;;;;;;;3.85;2.00;;;16.90;99.90;;;;;;10009639;29;20425;-82
2022/07/24 20:13:01;;;;;;;3.75;2.08;;;16.80;99.90;;;;;;10006649;29;20359;-81
2022/07/24 20:18:02;;;;;;;2.20;1.77;;;16.80;99.90;;;;;;10009396;29;20050;-82
2022/07/24 20:23:03;;;;;;;4.22;2.55;;;16.70;99.90;;;;;;10014006;29;20115;-81
2022/07/24 20:28:05;;;;;;;3.60;2.53;;;16.60;99.90;;;;;;10013538;29;20034;-82
2022/07/24 20:33:05;;;;;;;270.25;33.55;;;16.60;99.90;;;;;;10016402;29;20038;-82
2022/07/24 20:38:06;;;;;;;1.48;1.25;;;16.50;99.90;;;;;;10015229;29;20049;-82
2022/07/24 20:43:07;;;;;;;2.95;2.60;;;16.40;99.90;;;;;;10014307;29;20559;-82
2022/07/24 20:48:07;;;;;;;3.10;2.17;;;16.30;99.90;;;;;;10016281;29;20129;-83
2022/07/24 20:53:08;;;;;;;2.92;2.17;;;16.30;99.90;;;;;;10016494;29;20044;-82
2022/07/24 20:58:08;;;;;;;4.50;2.45;;;16.30;99.90;;;;;;10016221;29;20050;-82
2022/07/24 21:03:09;;;;;;;2.83;2.22;;;16.30;99.90;;;;;;10016658;29;20118;-82
2022/07/24 21:08:10;;;;;;;3.97;2.42;;;16.30;99.90;;;;;;10016081;29;20140;-82
2022/07/24 21:13:10;;;;;;;4.00;2.40;;;16.20;99.90;;;;;;10016022;29;20042;-83
2022/07/24 21:18:11;;;;;;;4.88;2.30;;;16.10;99.90;;;;;;10014688;29;20625;-83
2022/07/24 21:23:12;;;;;;;4.78;2.35;;;16.10;99.90;;;;;;10016393;29;20044;-82
2022/07/24 21:28:12;;;;;;;6.90;2.25;;;16.00;99.90;;;;;;10013812;29;20112;-82
2022/07/24 21:33:13;;;;;;;3.50;2.40;;;15.90;99.90;;;;;;9998007;29;20058;-82
2022/07/24 21:38:13;;;;;;;4.45;2.50;;;15.90;99.90;;;;;;10014381;29;20056;-82
2022/07/24 21:43:14;;;;;;;3.60;2.47;;;15.80;99.90;;;;;;10014705;29;20098;-82
2022/07/24 21:48:14;;;;;;;3.88;2.40;;;15.80;99.90;;;;;;10014615;29;20388;-82
2022/07/24 21:53:15;;;;;;;3.72;2.30;;;15.70;99.90;;;;;;10014709;29;20038;-82
2022/07/24 21:58:16;;;;;;;3.72;2.50;;;15.70;99.90;;;;;;10013882;29;20050;-82
2022/07/24 22:03:16;;;;;;;3.15;2.38;;;15.70;99.90;;;;;;10014103;29;20026;-82
2022/07/24 22:08:17;;;;;;;3.15;2.50;;;15.60;99.90;;;;;;10013397;29;20042;-82
2022/07/24 22:13:17;;;;;;;3.72;2.78;;;15.50;99.90;;;;;;10013589;29;20036;-82
2022/07/24 22:18:18;;;;;;;3.67;3.13;;;15.40;99.90;;;;;;10013109;29;20042;-83
2022/07/24 22:23:18;;;;;;;5.20;3.38;;;15.40;99.90;;;;;;10017379;29;20046;-82
2022/07/24 22:28:19;;;;;;;5.93;3.38;;;15.40;99.90;;;;;;10012031;29;20050;-82
2022/07/24 22:33:20;;;;;;;3.88;3.10;;;15.40;99.90;;;;;;10012989;29;20049;-82
2022/07/24 22:38:20;;;;;;;3.45;3.00;;;15.30;99.90;;;;;;10012909;29;20545;-82
2022/07/24 22:43:21;;;;;;;5.10;3.45;;;15.40;99.90;;;;;;9996044;29;20045;-82
2022/07/24 22:48:22;;;;;;;5.60;4.03;;;15.40;99.90;;;;;;10011496;29;20121;-83
2022/07/24 22:53:23;;;;;;;4.60;3.47;;;15.30;99.90;;;;;;10012054;29;20046;-82
2022/07/24 22:58:23;;;;;;;6.28;4.30;;;15.30;99.90;;;;;;10011070;29;20128;-82
2022/07/24 23:03:24;;;;;;;4.53;4.13;;;15.20;99.90;;;;;;10014018;29;20038;-82
2022/07/24 23:08:24;;;;;;;5.57;4.20;;;15.20;99.90;;;;;;9994726;29;20038;-82
2022/07/24 23:13:25;;;;;;;6.70;4.40;;;15.10;99.90;;;;;;10011446;29;20046;-82
2022/07/24 23:18:26;;;;;;;6.82;4.32;;;14.90;99.90;;;;;;10014687;29;20062;-83
2022/07/24 23:23:26;;;;;;;5.43;4.50;;;14.80;99.90;;;;;;10011388;29;20057;-83
2022/07/24 23:28:27;;;;;;;7.25;4.97;;;14.80;99.90;;;;;;9994319;29;20037;-82
2022/07/24 23:33:27;;;;;;;6.13;4.30;;;14.80;99.90;;;;;;10011197;29;20034;-83
2022/07/24 23:38:28;;;;;;;9.57;5.32;;;14.80;99.90;;;;;;9994194;29;20079;-83
2022/07/24 23:43:29;;;;;;;6.45;4.93;;;14.70;99.90;;;;;;10010705;29;20049;-83
2022/07/24 23:48:29;;;;;;;5.72;4.28;;;14.70;99.90;;;;;;10008815;29;20040;-83
2022/07/24 23:53:30;;;;;;;6.00;4.32;;;14.50;99.90;;;;;;10010973;29;20042;-83
2022/07/24 23:58:30;;;;;;;9.07;4.38;;;14.30;99.90;;;;;;10009593;29;20086;-83
